Kezdőlap
METAR-TAF:

METAR-TAF

Repülőterek :

Bíldudalur, Izland

földrajzi szélesség: 65-38-30N, földrajzi hosszúság: 23-32-45W, magasság: 8 m

Jelenlegi meteorológiai megfigyelések

A jelentés 1 órával és 7 perccel ezelõtt készült, 09:00 UTC
Északkeleti szél 8 kt
Hőmérséklet 6°C
Páratartalom 61%
Légköri nyomás 1005 hPa
Látótávolság 10 km, vagy több
Kevés felhő 3000 lábon
Szórványos felhőzet 4500 lábon

METAR: BIBD 050900Z 05008KT 9999 FEW030 SCT045 06/M01 Q1005

Idő: 10:07 (10:07 UTC)

Előrejelzés

A jelentés 2 órával és 34 perccel ezelõtt készült, 07:33 UTC
Az előrejelzés 05-én 08 óra UTC és 05-én 17 óra UTC között érvényes
Keleti szél 9 kt
Látótávolság 10 km, vagy több
Szakadozott felhőzet 4000 lábon

TAF: BIBD 050733Z 0508/0517 10009KT 9999 BKN040

Meteorológiai megfigyelések és előrejelzések több, mint 4000 repülőtéren (METAR és TAF jelentéseket).

A térképen piros és sárga pontok jelzik az elérhető meteorológiai állomásokat.

Mozgassa az egeret a pont fölött, hogy megjelenjen az állomás neve.

Azután kattintson az időjárási megfigyelések és előrejelzések megtekintéséhez.

A térkép megváltoztatása: kattintson a fekete keresztel jelölt zöld gombra ráközelítéshez, a vonallal jelölt zöld gombra távolításhoz, vagy a zöld nyilakra a szomszédos térképek eléréséhez.


METAR-TAF: